UKR110 UGKO-UKGO
Flight info
| Callsign | UKR110 |
|---|---|
| Flight time | N/A |
| Altitude | 2500 |
| Route | DCT |
| Aircraft | MI8/L-VGD/A |
Departure
| Time | 2026-05-07 20:51 |
|---|---|
| Airport | David the Builder Kutaisi International Airport (UGKO) |
Arrival
| Time | N/A |
|---|---|
| Airport | UKGO |
| Time | Latitude | Longitude | Altitude | Speed | Heading |
|---|---|---|---|---|---|
| 2026-05-07 20:34 | 42.17155 | 42.48047 | 232 ft | 0 kts | 320° |
| 2026-05-07 20:34 | 42.17155 | 42.48048 | 232 ft | 0 kts | 319° |
| 2026-05-07 20:34 | 42.17154 | 42.48048 | 232 ft | 0 kts | 320° |
| 2026-05-07 20:34 | 42.17189 | 42.48024 | 236 ft | 12 kts | 340° |
| 2026-05-07 20:35 | 42.17232 | 42.48007 | 233 ft | 9 kts | 343° |
| 2026-05-07 20:35 | 42.17268 | 42.47973 | 236 ft | 6 kts | 288° |
| 2026-05-07 20:35 | 42.17297 | 42.47884 | 256 ft | 15 kts | 268° |
| 2026-05-07 20:35 | 42.17317 | 42.47642 | 271 ft | 33 kts | 278° |
| 2026-05-07 20:36 | 42.17332 | 42.47456 | 232 ft | 0 kts | 262° |
| 2026-05-07 20:39 | 42.17332 | 42.47457 | 232 ft | 0 kts | 263° |
| 2026-05-07 20:39 | 42.17328 | 42.47415 | 233 ft | 8 kts | 263° |
| 2026-05-07 20:39 | 42.17319 | 42.47329 | 233 ft | 9 kts | 258° |
| 2026-05-07 20:40 | 42.17305 | 42.47232 | 233 ft | 11 kts | 262° |
| 2026-05-07 20:40 | 42.17298 | 42.47120 | 233 ft | 12 kts | 257° |
| 2026-05-07 20:40 | 42.17285 | 42.47004 | 233 ft | 12 kts | 261° |
| 2026-05-07 20:40 | 42.17270 | 42.46888 | 233 ft | 9 kts | 258° |
| 2026-05-07 20:41 | 42.17303 | 42.46836 | 233 ft | 9 kts | 348° |
| 2026-05-07 20:41 | 42.17393 | 42.46815 | 232 ft | 0 kts | 352° |
| 2026-05-07 20:41 | 42.17392 | 42.46815 | 232 ft | 0 kts | 354° |
| 2026-05-07 20:42 | 42.17390 | 42.46816 | 232 ft | 0 kts | 354° |
| 2026-05-07 20:42 | 42.17386 | 42.46816 | 232 ft | 0 kts | 354° |
| 2026-05-07 20:42 | 42.17428 | 42.46810 | 233 ft | 8 kts | 353° |
| 2026-05-07 20:42 | 42.17484 | 42.46818 | 233 ft | 7 kts | 39° |
| 2026-05-07 20:43 | 42.17501 | 42.46889 | 233 ft | 8 kts | 79° |
| 2026-05-07 20:43 | 42.17514 | 42.46973 | 232 ft | 12 kts | 79° |
| 2026-05-07 20:43 | 42.17537 | 42.47134 | 232 ft | 17 kts | 81° |
| 2026-05-07 20:43 | 42.17561 | 42.47345 | 233 ft | 23 kts | 82° |
| 2026-05-07 20:44 | 42.17578 | 42.47522 | 232 ft | 12 kts | 82° |
| 2026-05-07 20:44 | 42.17580 | 42.47546 | 232 ft | 0 kts | 77° |
| 2026-05-07 20:44 | 42.17581 | 42.47548 | 232 ft | 0 kts | 77° |
| 2026-05-07 20:44 | 42.17581 | 42.47549 | 232 ft | 0 kts | 79° |
| 2026-05-07 20:45 | 42.17604 | 42.47678 | 274 ft | 34 kts | 75° |
| 2026-05-07 20:45 | 42.17674 | 42.48224 | 391 ft | 89 kts | 83° |
| 2026-05-07 20:46 | 42.17672 | 42.48648 | 436 ft | 52 kts | 149° |
| 2026-05-07 20:46 | 42.17696 | 42.48330 | 232 ft | 0 kts | 173° |
| 2026-05-07 20:46 | 42.17704 | 42.48347 | 232 ft | 1 kts | 177° |
| 2026-05-07 20:47 | 42.17696 | 42.48441 | 344 ft | 35 kts | 109° |
| 2026-05-07 20:47 | 42.17739 | 42.49010 | 790 ft | 88 kts | 85° |
| 2026-05-07 20:47 | 42.17800 | 42.50094 | 740 ft | 131 kts | 92° |
| 2026-05-07 20:48 | 42.18033 | 42.51270 | 810 ft | 129 kts | 66° |
| 2026-05-07 20:48 | 42.18669 | 42.52153 | 814 ft | 135 kts | 46° |
| 2026-05-07 20:48 | 42.19534 | 42.52866 | 729 ft | 150 kts | 34° |
| 2026-05-07 20:48 | 42.20358 | 42.53806 | 459 ft | 156 kts | 47° |
| 2026-05-07 20:49 | 42.21079 | 42.54859 | 458 ft | 150 kts | 49° |
| 2026-05-07 20:49 | 42.21791 | 42.55870 | 419 ft | 148 kts | 50° |
| 2026-05-07 20:49 | 42.22560 | 42.56777 | 436 ft | 147 kts | 40° |
| 2026-05-07 20:49 | 42.23351 | 42.57677 | 407 ft | 150 kts | 43° |
| 2026-05-07 20:50 | 42.24130 | 42.58546 | 526 ft | 143 kts | 39° |
| 2026-05-07 20:50 | 42.24988 | 42.59180 | 696 ft | 143 kts | 30° |
| 2026-05-07 20:50 | 42.25906 | 42.59757 | 770 ft | 145 kts | 26° |
| 2026-05-07 20:50 | 42.26834 | 42.60394 | 675 ft | 150 kts | 31° |
| 2026-05-07 20:51 | 42.27719 | 42.61060 | 838 ft | 140 kts | 32° |
| 2026-05-07 20:51 | 42.28588 | 42.61794 | 708 ft | 154 kts | 34° |
| 2026-05-07 20:51 | 42.29438 | 42.62651 | 720 ft | 148 kts | 40° |
| 2026-05-07 20:51 | 42.30285 | 42.63409 | 791 ft | 147 kts | 34° |
| 2026-05-07 20:52 | 42.31223 | 42.63985 | 835 ft | 145 kts | 22° |
| 2026-05-07 20:52 | 42.32168 | 42.64473 | 892 ft | 145 kts | 25° |
| 2026-05-07 20:52 | 42.33032 | 42.65075 | 1216 ft | 137 kts | 31° |
| 2026-05-07 20:52 | 42.33819 | 42.65754 | 1585 ft | 132 kts | 36° |
| 2026-05-07 20:53 | 42.34376 | 42.66103 | 1499 ft | 67 kts | 302° |
| 2026-05-07 20:53 | 42.34461 | 42.66108 | 1436 ft | 1 kts | 31° |
| 2026-05-07 20:53 | 42.34453 | 42.66097 | 1479 ft | 17 kts | 35° |
| 2026-05-07 20:53 | 42.34733 | 42.66356 | 1874 ft | 85 kts | 34° |
| 2026-05-07 20:54 | 42.35309 | 42.66932 | 2064 ft | 118 kts | 36° |
| 2026-05-07 20:54 | 42.36056 | 42.67497 | 2243 ft | 130 kts | 34° |
| 2026-05-07 20:54 | 42.36935 | 42.68042 | 2235 ft | 145 kts | 29° |
| 2026-05-07 20:54 | 42.37896 | 42.68641 | 1968 ft | 156 kts | 29° |
| 2026-05-07 20:55 | 42.38926 | 42.69297 | 1373 ft | 167 kts | 28° |
| 2026-05-07 20:55 | 42.39819 | 42.69565 | 1991 ft | 110 kts | 22° |
| 2026-05-07 20:55 | 42.40651 | 42.69575 | 1989 ft | 132 kts | 4° |
| 2026-05-07 20:55 | 42.41568 | 42.69893 | 1971 ft | 136 kts | 36° |
| 2026-05-07 20:56 | 42.42042 | 42.70995 | 1981 ft | 146 kts | 78° |
| 2026-05-07 20:56 | 42.42063 | 42.72407 | 1776 ft | 157 kts | 96° |
| 2026-05-07 20:56 | 42.42282 | 42.73741 | 1720 ft | 137 kts | 65° |
| 2026-05-07 20:56 | 42.42971 | 42.74515 | 1939 ft | 135 kts | 36° |
| 2026-05-07 20:57 | 42.43803 | 42.75238 | 2011 ft | 143 kts | 38° |
| 2026-05-07 20:57 | 42.44607 | 42.75971 | 2243 ft | 137 kts | 33° |
| 2026-05-07 20:57 | 42.45457 | 42.76673 | 2308 ft | 144 kts | 34° |
| 2026-05-07 20:57 | 42.46326 | 42.77338 | 2376 ft | 144 kts | 30° |
| 2026-05-07 20:58 | 42.47213 | 42.77882 | 2619 ft | 138 kts | 24° |
| 2026-05-07 20:58 | 42.48106 | 42.78393 | 2629 ft | 150 kts | 25° |
| 2026-05-07 20:58 | 42.49114 | 42.78946 | 2285 ft | 161 kts | 24° |
| 2026-05-07 20:58 | 42.50129 | 42.79606 | 1772 ft | 165 kts | 32° |
| 2026-05-07 20:59 | 42.50999 | 42.80417 | 2032 ft | 134 kts | 40° |
| 2026-05-07 20:59 | 42.51603 | 42.81072 | 2897 ft | 106 kts | 36° |
| 2026-05-07 20:59 | 42.52245 | 42.81644 | 3393 ft | 120 kts | 31° |
| 2026-05-07 20:59 | 42.53043 | 42.82238 | 3489 ft | 140 kts | 32° |
| 2026-05-07 21:00 | 42.53437 | 42.82600 | 3512 ft | 143 kts | 37° |
| 2026-05-07 21:02 | 42.54053 | 42.83364 | 3870 ft | 130 kts | 47° |
| 2026-05-07 21:02 | 42.54769 | 42.84229 | 3905 ft | 141 kts | 38° |
| 2026-05-07 21:02 | 42.55613 | 42.84919 | 4006 ft | 142 kts | 29° |
| 2026-05-07 21:02 | 42.56544 | 42.85377 | 3986 ft | 145 kts | 21° |
| 2026-05-07 21:03 | 42.57511 | 42.85818 | 3907 ft | 149 kts | 20° |
| 2026-05-07 21:03 | 42.58490 | 42.86233 | 3941 ft | 147 kts | 22° |
| 2026-05-07 21:03 | 42.59455 | 42.86718 | 3856 ft | 147 kts | 24° |
| 2026-05-07 21:03 | 42.60401 | 42.87204 | 3988 ft | 140 kts | 18° |
| 2026-05-07 21:04 | 42.61214 | 42.87570 | 4664 ft | 114 kts | 17° |
| 2026-05-07 21:04 | 42.61932 | 42.87878 | 5297 ft | 110 kts | 13° |
| 2026-05-07 21:04 | 42.62715 | 42.88061 | 5627 ft | 127 kts | 3° |
| 2026-05-07 21:04 | 42.63162 | 42.88083 | 5727 ft | 129 kts | 1° |
| 2026-05-07 21:05 | 42.63210 | 42.88084 | 5738 ft | 129 kts | 1° |
| 2026-05-07 21:05 | 42.64049 | 42.88009 | 5675 ft | 143 kts | 353° |
| 2026-05-07 21:06 | 42.65033 | 42.87720 | 5637 ft | 143 kts | 347° |
| 2026-05-07 21:06 | 42.65996 | 42.87333 | 5597 ft | 146 kts | 342° |
| 2026-05-07 21:06 | 42.66649 | 42.86958 | 5625 ft | 141 kts | 335° |
| 2026-05-07 21:07 | 42.66804 | 42.86846 | 5798 ft | 130 kts | 331° |
| 2026-05-07 21:07 | 42.67485 | 42.86234 | 6376 ft | 114 kts | 324° |
| 2026-05-07 21:07 | 42.68153 | 42.85599 | 6695 ft | 122 kts | 321° |
| 2026-05-07 21:08 | 42.68835 | 42.84869 | 6973 ft | 126 kts | 319° |
| 2026-05-07 21:08 | 42.69551 | 42.84137 | 7237 ft | 128 kts | 323° |
| 2026-05-07 21:08 | 42.70280 | 42.83437 | 7420 ft | 136 kts | 327° |
| 2026-05-07 21:08 | 42.71190 | 42.82746 | 7119 ft | 154 kts | 337° |
| 2026-05-07 21:09 | 42.72223 | 42.82332 | 6937 ft | 153 kts | 348° |
| 2026-05-07 21:09 | 42.73243 | 42.82013 | 6861 ft | 147 kts | 348° |
| 2026-05-07 21:09 | 42.74259 | 42.81613 | 6763 ft | 147 kts | 346° |
| 2026-05-07 21:09 | 42.75192 | 42.81250 | 7035 ft | 133 kts | 345° |
| 2026-05-07 21:10 | 42.76043 | 42.80907 | 7441 ft | 126 kts | 342° |
| 2026-05-07 21:10 | 42.76866 | 42.80513 | 7793 ft | 127 kts | 343° |
| 2026-05-07 21:10 | 42.77758 | 42.80073 | 7788 ft | 142 kts | 341° |
| 2026-05-07 21:10 | 42.78707 | 42.79561 | 7627 ft | 153 kts | 341° |
| 2026-05-07 21:11 | 42.79686 | 42.79104 | 7716 ft | 141 kts | 345° |
| 2026-05-07 21:11 | 42.80577 | 42.78777 | 8094 ft | 128 kts | 346° |
| 2026-05-07 21:11 | 42.82343 | 42.78251 | 8601 ft | 135 kts | 351° |
| 2026-05-07 21:12 | 42.83280 | 42.78044 | 8762 ft | 137 kts | 352° |
| 2026-05-07 21:12 | 42.84222 | 42.77927 | 8901 ft | 140 kts | 356° |
| 2026-05-07 21:12 | 42.85160 | 42.77824 | 9289 ft | 126 kts | 354° |
| 2026-05-07 21:12 | 42.85983 | 42.77769 | 9769 ft | 120 kts | 357° |
| 2026-05-07 21:13 | 42.86822 | 42.77784 | 10143 ft | 125 kts | 1° |
| 2026-05-07 21:13 | 42.87993 | 42.77587 | 10621 ft | 122 kts | 352° |
| 2026-05-07 21:13 | 42.88915 | 42.77315 | 10875 ft | 129 kts | 341° |
| 2026-05-07 21:13 | 42.89676 | 42.77018 | 11078 ft | 130 kts | 343° |
| 2026-05-07 21:18 | 42.89938 | 42.76915 | 11156 ft | 130 kts | 343° |
| 2026-05-07 21:18 | 42.90819 | 42.76572 | 11420 ft | 130 kts | 346° |
| 2026-05-07 21:18 | 42.91711 | 42.76121 | 11435 ft | 142 kts | 336° |
| 2026-05-07 21:18 | 42.92683 | 42.75533 | 11051 ft | 163 kts | 339° |
| 2026-05-07 21:19 | 42.93770 | 42.74999 | 10473 ft | 173 kts | 343° |
| 2026-05-07 21:19 | 42.94926 | 42.74638 | 9999 ft | 171 kts | 354° |
| 2026-05-07 21:19 | 42.96108 | 42.74529 | 9388 ft | 175 kts | 0° |
| 2026-05-07 21:19 | 42.97290 | 42.74596 | 8850 ft | 172 kts | 6° |
| 2026-05-07 21:20 | 42.98385 | 42.74765 | 8801 ft | 158 kts | 6° |
| 2026-05-07 21:20 | 42.99481 | 42.74861 | 8589 ft | 155 kts | 7° |
| 2026-05-07 21:20 | 43.00529 | 42.74961 | 8547 ft | 149 kts | 4° |
| 2026-05-07 21:20 | 43.01588 | 42.74965 | 8342 ft | 154 kts | 1° |
| 2026-05-07 21:21 | 43.02665 | 42.74798 | 7758 ft | 169 kts | 357° |
| 2026-05-07 21:21 | 43.03849 | 42.74683 | 6737 ft | 182 kts | 4° |
| 2026-05-07 21:21 | 43.05066 | 42.74894 | 5264 ft | 190 kts | 15° |
| 2026-05-07 21:21 | 43.06133 | 42.75156 | 5610 ft | 141 kts | 11° |
| 2026-05-07 21:22 | 43.07077 | 42.75090 | 5873 ft | 130 kts | 350° |
| 2026-05-07 21:22 | 43.07866 | 42.74598 | 6250 ft | 114 kts | 354° |
| 2026-05-07 21:22 | 43.08356 | 42.74936 | 6925 ft | 77 kts | 76° |
| 2026-05-07 21:22 | 43.07965 | 42.75719 | 6510 ft | 140 kts | 141° |
| 2026-05-07 21:23 | 43.06997 | 42.76079 | 5728 ft | 150 kts | 200° |
| 2026-05-07 21:23 | 43.06564 | 42.75744 | 6889 ft | 26 kts | 81° |
| 2026-05-07 21:23 | 43.06529 | 42.75987 | 6894 ft | 88 kts | 77° |
| 2026-05-07 21:23 | 43.07062 | 42.76422 | 7187 ft | 108 kts | 350° |
| 2026-05-07 21:24 | 43.07204 | 42.75603 | 7482 ft | 98 kts | 236° |
| 2026-05-07 21:24 | 43.06747 | 42.75424 | 7599 ft | 52 kts | 196° |
| 2026-05-07 21:24 | 43.06276 | 42.75388 | 6811 ft | 113 kts | 201° |
| 2026-05-07 21:24 | 43.05573 | 42.74736 | 5688 ft | 152 kts | 227° |
| 2026-05-07 21:25 | 43.04990 | 42.73887 | 5123 ft | 79 kts | 169° |
| 2026-05-07 21:25 | 43.04784 | 42.74010 | 5186 ft | 55 kts | 81° |
| 2026-05-07 21:25 | 43.04879 | 42.74569 | 4929 ft | 60 kts | 16° |
| 2026-05-07 21:25 | 43.05159 | 42.74743 | 4776 ft | 33 kts | 38° |
| 2026-05-07 21:26 | 43.05267 | 42.74723 | 4721 ft | 22 kts | 95° |
| 2026-05-07 21:26 | 43.05263 | 42.74648 | 4733 ft | 10 kts | 81° |
| 2026-05-07 21:26 | 43.05323 | 42.74737 | 4749 ft | 17 kts | 33° |
| 2026-05-07 21:26 | 43.05425 | 42.74828 | 4756 ft | 16 kts | 26° |
| 2026-05-07 21:27 | 43.05535 | 42.74899 | 4779 ft | 15 kts | 10° |
| 2026-05-07 21:27 | 43.05629 | 42.74982 | 4781 ft | 13 kts | 45° |
| 2026-05-07 21:27 | 43.05691 | 42.75048 | 4787 ft | 11 kts | 39° |
| 2026-05-07 21:27 | 43.05737 | 42.75095 | 4790 ft | 11 kts | 19° |
| 2026-05-07 21:28 | 43.05777 | 42.75144 | 4772 ft | 3 kts | 10° |
| 2026-05-07 21:28 | 43.05793 | 42.75153 | 4763 ft | 3 kts | 14° |
| 2026-05-07 21:28 | 43.05810 | 42.75164 | 4759 ft | 1 kts | 22° |
| 2026-05-07 21:28 | 43.05813 | 42.75168 | 4761 ft | 2 kts | 5° |
| 2026-05-07 21:29 | 43.05823 | 42.75171 | 4755 ft | 0 kts | 307° |
| 2026-05-07 21:30 | 43.05823 | 42.75170 | 4754 ft | 0 kts | 313° |